Time;durP1;ratioP1;P1;durP2;ratioP2;P2;SDS_P1;SDS_P2;PMS_P1;PMS_P2;Temp;Humidity;BMP_temperature;BMP_pressure;BME280_temperature;BME280_humidity;BME280_pressure;Samples;Min_cycle;Max_cycle;Signal;HPM_P1;HPM_P2
2022/07/01 00:01:17;;;;;;;;;;;;;;;;;;2210567;67;1097;-51
2022/07/01 00:03:51;;;;;;;;;;;;;;;;;;2209467;59;1272;-53
2022/07/01 00:06:24;;;;;;;;;;;;;;;;;;2210208;67;1246;-53
2022/07/01 00:08:58;;;;;;;;;;;;;;;;;;2209638;59;1428;-52
2022/07/01 00:11:34;;;;;;;;;;;;;;;;;;2209498;59;1398;-52
2022/07/01 00:14:07;;;;;;;;;;;;;;;;;;2209483;67;1188;-57
2022/07/01 00:16:40;;;;;;;;;;;;;;;;;;2209531;59;1936;-52
2022/07/01 00:19:13;;;;;;;;;;;;;;;;;;2209832;67;1183;-54
2022/07/01 00:21:47;;;;;;;;;;;;;;;;;;2209318;67;1067;-52
2022/07/01 00:24:20;;;;;;;;;;;;;;;;;;2210023;67;1228;-52
2022/07/01 00:26:56;;;;;;;;;;;;;;;;;;2209835;67;1243;-52
2022/07/01 00:29:29;;;;;;;;;;;;;;;;;;2209504;67;1535;-55
2022/07/01 00:32:02;;;;;;;;;;;;;;;;;;2209043;59;1956;-52
2022/07/01 00:34:35;;;;;;;;;;;;;;;;;;2209823;67;1925;-52
2022/07/01 00:37:09;;;;;;;;;;;;;;;;;;2209975;67;1206;-52
2022/07/01 00:39:42;;;;;;;;;;;;;;;;;;2209769;67;1240;-52
2022/07/01 00:42:18;;;;;;;;;;;;;;;;;;2209975;59;1906;-52
2022/07/01 00:44:51;;;;;;;;;;;;;;;;;;2209082;59;1163;-52
2022/07/01 00:47:25;;;;;;;;;;;;;;;;;;2209891;59;1151;-52
2022/07/01 00:49:58;;;;;;;;;;;;;;;;;;2209221;67;1228;-52
2022/07/01 00:52:31;;;;;;;;;;;;;;;;;;2209333;67;1197;-53
2022/07/01 00:55:06;;;;;;;;;;;;;;;;;;2208872;59;1933;-52
2022/07/01 00:57:42;;;;;;;;;;;;;;;;;;2209783;67;1150;-52
2022/07/01 01:00:17;;;;;;;;;;;;;;;;;;2208831;67;1216;-52
2022/07/01 01:02:50;;;;;;;;;;;;;;;;;;2209559;67;1363;-52
2022/07/01 01:05:25;;;;;;;;;;;;;;;;;;2209946;67;1313;-52
2022/07/01 01:07:58;;;;;;;;;;;;;;;;;;2209326;67;1260;-53
2022/07/01 01:10:32;;;;;;;;;;;;;;;;;;2208716;59;1544;-52
2022/07/01 01:13:08;;;;;;;;;;;;;;;;;;2209623;59;1228;-52
2022/07/01 01:15:41;;;;;;;;;;;;;;;;;;2209634;67;1921;-52
2022/07/01 01:18:14;;;;;;;;;;;;;;;;;;2209462;67;1229;-52
2022/07/01 01:20:50;;;;;;;;;;;;;;;;;;2209645;67;1233;-52
2022/07/01 01:23:23;;;;;;;;;;;;;;;;;;2209562;67;1108;-53
2022/07/01 01:25:57;;;;;;;;;;;;;;;;;;2209329;67;1228;-52
2022/07/01 01:28:30;;;;;;;;;;;;;;;;;;2209161;67;1174;-52
2022/07/01 01:31:03;;;;;;;;;;;;;;;;;;2209082;67;2004;-52
2022/07/01 01:33:36;;;;;;;;;;;;;;;;;;2209024;67;1159;-52
2022/07/01 01:36:12;;;;;;;;;;;;;;;;;;2209452;67;1936;-53
2022/07/01 01:38:45;;;;;;;;;;;;;;;;;;2209290;59;1615;-52
2022/07/01 01:41:18;;;;;;;;;;;;;;;;;;2209809;59;1997;-56
2022/07/01 01:43:51;;;;;;;;;;;;;;;;;;2209388;67;1226;-52
2022/07/01 01:46:25;;;;;;;;;;;;;;;;;;2209804;67;1213;-53
2022/07/01 01:48:58;;;;;;;;;;;;;;;;;;2210836;67;1302;-52
2022/07/01 01:51:34;;;;;;;;;;;;;;;;;;2209943;67;1141;-52
2022/07/01 01:54:08;;;;;;;;;;;;;;;;;;2208238;59;1185;-54
2022/07/01 01:56:41;;;;;;;;;;;;;;;;;;2209313;67;2018;-52
2022/07/01 01:59:14;;;;;;;;;;;;;;;;;;2205772;67;1255;-54
2022/07/01 02:01:47;;;;;;;;;;;;;;;;;;2209425;67;1152;-51
2022/07/01 02:04:23;;;;;;;;;;;;;;;;;;2209817;59;1351;-53
2022/07/01 02:06:59;;;;;;;;;;;;;;;;;;2209303;67;1250;-52
2022/07/01 02:09:32;;;;;;;;;;;;;;;;;;2208688;67;1302;-54
2022/07/01 02:12:05;;;;;;;;;;;;;;;;;;2208724;59;1241;-52
2022/07/01 02:14:39;;;;;;;;;;;;;;;;;;2209348;67;1207;-53
2022/07/01 02:17:12;;;;;;;;;;;;;;;;;;2209452;67;1937;-52
2022/07/01 02:19:45;;;;;;;;;;;;;;;;;;2208966;67;1184;-53
2022/07/01 02:22:21;;;;;;;;;;;;;;;;;;2209385;67;1268;-52
2022/07/01 02:24:54;;;;;;;;;;;;;;;;;;2208843;67;1310;-52
2022/07/01 02:27:27;;;;;;;;;;;;;;;;;;2209488;59;1341;-52
2022/07/01 02:30:01;;;;;;;;;;;;;;;;;;2209072;67;1293;-52
2022/07/01 02:32:34;;;;;;;;;;;;;;;;;;2209660;59;2405;-52
2022/07/01 02:35:07;;;;;;;;;;;;;;;;;;2209280;67;1202;-52
2022/07/01 02:37:43;;;;;;;;;;;;;;;;;;2208871;67;1937;-52
2022/07/01 02:40:16;;;;;;;;;;;;;;;;;;2210248;59;1382;-52
2022/07/01 02:42:49;;;;;;;;;;;;;;;;;;2210830;59;2187;-52
2022/07/01 02:45:24;;;;;;;;;;;;;;;;;;2210979;67;1290;-52
2022/07/01 02:47:57;;;;;;;;;;;;;;;;;;2209778;67;1238;-53
2022/07/01 02:50:30;;;;;;;;;;;;;;;;;;2209269;67;1266;-52
2022/07/01 02:53:06;;;;;;;;;;;;;;;;;;2209044;67;1266;-55
2022/07/01 02:55:40;;;;;;;;;;;;;;;;;;2209179;67;1924;-53
2022/07/01 02:58:13;;;;;;;;;;;;;;;;;;2209747;67;1278;-53
2022/07/01 03:00:48;;;;;;;;;;;;;;;;;;2209218;67;1090;-53
2022/07/01 03:03:21;;;;;;;;;;;;;;;;;;2209184;59;1788;-52
2022/07/01 03:05:55;;;;;;;;;;;;;;;;;;2207998;59;1221;-52
2022/07/01 03:08:30;;;;;;;;;;;;;;;;;;2208783;59;1322;-53
2022/07/01 03:11:04;;;;;;;;;;;;;;;;;;2208919;59;1350;-52
2022/07/01 03:13:37;;;;;;;;;;;;;;;;;;2208662;59;1582;-55
2022/07/01 03:16:10;;;;;;;;;;;;;;;;;;2208957;67;1986;-53
2022/07/01 03:18:43;;;;;;;;;;;;;;;;;;2208807;67;1238;-52
2022/07/01 03:21:16;;;;;;;;;;;;;;;;;;2208905;59;1338;-51
2022/07/01 03:23:52;;;;;;;;;;;;;;;;;;2209110;67;1173;-52
2022/07/01 03:26:25;;;;;;;;;;;;;;;;;;2208845;59;1262;-52
2022/07/01 03:28:59;;;;;;;;;;;;;;;;;;2208441;67;1248;-52
2022/07/01 03:31:32;;;;;;;;;;;;;;;;;;2208505;59;2013;-52
2022/07/01 03:34:05;;;;;;;;;;;;;;;;;;2208308;67;1193;-53
2022/07/01 03:36:38;;;;;;;;;;;;;;;;;;2208341;67;1908;-52
2022/07/01 03:39:14;;;;;;;;;;;;;;;;;;2208877;59;1644;-52
2022/07/01 03:41:48;;;;;;;;;;;;;;;;;;2209047;59;2063;-53
2022/07/01 03:44:21;;;;;;;;;;;;;;;;;;2208703;67;1232;-52
2022/07/01 03:46:54;;;;;;;;;;;;;;;;;;2209156;67;1191;-52
2022/07/01 03:49:27;;;;;;;;;;;;;;;;;;2209636;67;1219;-52
2022/07/01 03:52:01;;;;;;;;;;;;;;;;;;2209184;59;1250;-52
2022/07/01 03:54:37;;;;;;;;;;;;;;;;;;2208822;59;1310;-52
2022/07/01 03:57:11;;;;;;;;;;;;;;;;;;2209484;67;1994;-52
2022/07/01 03:59:46;;;;;;;;;;;;;;;;;;2210346;59;2382;-52
2022/07/01 04:02:19;;;;;;;;;;;;;;;;;;2209093;59;1373;-52
2022/07/01 04:04:52;;;;;;;;;;;;;;;;;;2209693;67;1304;-52
2022/07/01 04:07:25;;;;;;;;;;;;;;;;;;2209629;59;1524;-52
2022/07/01 04:10:01;;;;;;;;;;;;;;;;;;2209257;67;1223;-52
2022/07/01 04:12:34;;;;;;;;;;;;;;;;;;2209453;59;1419;-52
2022/07/01 04:15:08;;;;;;;;;;;;;;;;;;2209549;59;1214;-53
2022/07/01 04:17:41;;;;;;;;;;;;;;;;;;2209287;67;1952;-52
2022/07/01 04:20:15;;;;;;;;;;;;;;;;;;2210088;67;1267;-52
2022/07/01 04:22:46;;;;;;;;;;;;;;;;;;2209736;67;1225;-52
2022/07/01 04:25:22;;;;;;;;;;;;;;;;;;2209652;59;1255;-53
2022/07/01 04:27:55;;;;;;;;;;;;;;;;;;2210131;60;1220;-54
2022/07/01 04:30:28;;;;;;;;;;;;;;;;;;2209842;59;1908;-52
2022/07/01 04:33:01;;;;;;;;;;;;;;;;;;2210848;59;1209;-56
2022/07/01 04:35:34;;;;;;;;;;;;;;;;;;2210712;67;1105;-52
2022/07/01 04:38:08;;;;;;;;;;;;;;;;;;2210441;59;1923;-56
2022/07/01 04:41:58;;;;;;;;;;;;;;;;;;2210457;59;1993;-55
2022/07/01 04:43:35;;;;;;;;;;;;;;;;;;2210774;67;2083;-56
2022/07/01 04:46:08;;;;;;;;;;;;;;;;;;2210521;67;1191;-53
2022/07/01 04:48:42;;;;;;;;;;;;;;;;;;2210431;67;1244;-52
2022/07/01 04:51:15;;;;;;;;;;;;;;;;;;2210230;67;1281;-52
2022/07/01 04:53:48;;;;;;;;;;;;;;;;;;2211017;59;1257;-53
2022/07/01 04:56:26;;;;;;;;;;;;;;;;;;2211183;67;1932;-54
2022/07/01 04:58:59;;;;;;;;;;;;;;;;;;2210559;67;1179;-52
2022/07/01 05:01:33;;;;;;;;;;;;;;;;;;2209014;67;1191;-53
2022/07/01 05:04:06;;;;;;;;;;;;;;;;;;2209829;67;1198;-52
2022/07/01 05:06:39;;;;;;;;;;;;;;;;;;2211908;59;1156;-53
2022/07/01 05:09:12;;;;;;;;;;;;;;;;;;2210243;67;1253;-53
2022/07/01 05:11:48;;;;;;;;;;;;;;;;;;2209821;59;1272;-53
2022/07/01 05:14:21;;;;;;;;;;;;;;;;;;2210053;67;1249;-52
2022/07/01 05:16:55;;;;;;;;;;;;;;;;;;2209834;67;1971;-56
2022/07/01 05:22:17;;;;;;;;;;;;;;;;;;2209826;67;1233;-52
2022/07/01 05:24:50;;;;;;;;;;;;;;;;;;2209980;67;1081;-54
2022/07/01 05:27:26;;;;;;;;;;;;;;;;;;2209923;59;1291;-53
2022/07/01 05:29:59;;;;;;;;;;;;;;;;;;2209873;67;1291;-56
2022/07/01 05:32:32;;;;;;;;;;;;;;;;;;2209990;59;2286;-53
2022/07/01 05:35:05;;;;;;;;;;;;;;;;;;2209844;59;1374;-52
2022/07/01 05:37:39;;;;;;;;;;;;;;;;;;2209573;67;1988;-52
2022/07/01 05:40:13;;;;;;;;;;;;;;;;;;2209870;67;1266;-53
2022/07/01 05:42:49;;;;;;;;;;;;;;;;;;2209554;59;1972;-55
2022/07/01 05:45:23;;;;;;;;;;;;;;;;;;2209967;67;1153;-54
2022/07/01 05:47:56;;;;;;;;;;;;;;;;;;2209398;67;1121;-53
2022/07/01 05:50:29;;;;;;;;;;;;;;;;;;2209626;67;1205;-54
2022/07/01 05:53:03;;;;;;;;;;;;;;;;;;2209588;67;1180;-53
2022/07/01 05:55:36;;;;;;;;;;;;;;;;;;2209200;59;1144;-54
2022/07/01 05:58:12;;;;;;;;;;;;;;;;;;2209611;67;1983;-53
2022/07/01 06:00:45;;;;;;;;;;;;;;;;;;2208721;67;1167;-52
2022/07/01 06:03:18;;;;;;;;;;;;;;;;;;2208960;67;1206;-52
2022/07/01 06:05:52;;;;;;;;;;;;;;;;;;2209463;67;1316;-52
2022/07/01 06:08:25;;;;;;;;;;;;;;;;;;2209738;67;1243;-52
2022/07/01 06:10:58;;;;;;;;;;;;;;;;;;2209238;59;1273;-54
2022/07/01 06:13:34;;;;;;;;;;;;;;;;;;2209234;67;1421;-59
2022/07/01 06:16:07;;;;;;;;;;;;;;;;;;2209251;67;1195;-52
2022/07/01 06:18:40;;;;;;;;;;;;;;;;;;2209078;67;1936;-52
2022/07/01 06:21:15;;;;;;;;;;;;;;;;;;2209474;67;1207;-53
2022/07/01 06:23:48;;;;;;;;;;;;;;;;;;2209018;67;1150;-55
2022/07/01 06:26:21;;;;;;;;;;;;;;;;;;2209548;59;1287;-53
2022/07/01 06:28:57;;;;;;;;;;;;;;;;;;2209387;67;1222;-53
2022/07/01 06:31:33;;;;;;;;;;;;;;;;;;2208877;59;1832;-52
2022/07/01 06:34:06;;;;;;;;;;;;;;;;;;2209011;67;1176;-53
2022/07/01 06:36:39;;;;;;;;;;;;;;;;;;2209137;67;1926;-52
2022/07/01 06:39:12;;;;;;;;;;;;;;;;;;2209447;59;1270;-54
2022/07/01 06:41:45;;;;;;;;;;;;;;;;;;2208929;59;1945;-53
2022/07/01 06:44:21;;;;;;;;;;;;;;;;;;2209988;67;1218;-54
2022/07/01 06:46:54;;;;;;;;;;;;;;;;;;2208877;67;1113;-52
2022/07/01 06:49:27;;;;;;;;;;;;;;;;;;2208996;67;1260;-52
2022/07/01 06:52:00;;;;;;;;;;;;;;;;;;2209348;67;1239;-53
2022/07/01 06:54:37;;;;;;;;;;;;;;;;;;2208997;67;1304;-53
2022/07/01 06:57:10;;;;;;;;;;;;;;;;;;2209474;59;1941;-52
2022/07/01 06:59:46;;;;;;;;;;;;;;;;;;2208007;67;1631;-52
2022/07/01 07:02:20;;;;;;;;;;;;;;;;;;2208803;67;1179;-54
2022/07/01 07:04:57;;;;;;;;;;;;;;;;;;2208997;67;1234;-53
2022/07/01 07:07:30;;;;;;;;;;;;;;;;;;2209017;67;1132;-54
2022/07/01 07:10:03;;;;;;;;;;;;;;;;;;2208597;67;1269;-53
2022/07/01 07:12:36;;;;;;;;;;;;;;;;;;2209006;59;1335;-53
2022/07/01 07:15:13;;;;;;;;;;;;;;;;;;2209505;60;1246;-56
2022/07/01 07:17:46;;;;;;;;;;;;;;;;;;2208444;67;1937;-52
2022/07/01 07:20:19;;;;;;;;;;;;;;;;;;2209491;67;1284;-53
2022/07/01 07:22:53;;;;;;;;;;;;;;;;;;2208911;67;1298;-53
2022/07/01 07:25:26;;;;;;;;;;;;;;;;;;2209574;59;1307;-53
2022/07/01 07:27:59;;;;;;;;;;;;;;;;;;2209823;59;1163;-52
2022/07/01 07:30:35;;;;;;;;;;;;;;;;;;2209344;59;1957;-58
2022/07/01 07:33:08;;;;;;;;;;;;;;;;;;2209502;67;1238;-52
2022/07/01 07:35:41;;;;;;;;;;;;;;;;;;2209923;67;1198;-52
2022/07/01 07:38:15;;;;;;;;;;;;;;;;;;2209660;59;1938;-54
2022/07/01 07:40:48;;;;;;;;;;;;;;;;;;2209865;59;2000;-54
2022/07/01 07:43:21;;;;;;;;;;;;;;;;;;2210043;67;1222;-56
2022/07/01 07:45:57;;;;;;;;;;;;;;;;;;2209300;67;1108;-54
2022/07/01 07:48:30;;;;;;;;;;;;;;;;;;2209532;67;1268;-53
2022/07/01 07:51:04;;;;;;;;;;;;;;;;;;2209722;67;1250;-53
2022/07/01 07:53:37;;;;;;;;;;;;;;;;;;2209282;59;1157;-53
2022/07/01 07:56:10;;;;;;;;;;;;;;;;;;2210094;59;1263;-55
2022/07/01 07:58:44;;;;;;;;;;;;;;;;;;2209240;67;1928;-53
2022/07/01 08:01:19;;;;;;;;;;;;;;;;;;2208870;67;1217;-52
2022/07/01 08:03:53;;;;;;;;;;;;;;;;;;2209515;67;1207;-53
2022/07/01 08:06:26;;;;;;;;;;;;;;;;;;2210047;67;1343;-54
2022/07/01 08:08:59;;;;;;;;;;;;;;;;;;2210303;67;1318;-53
2022/07/01 08:11:32;;;;;;;;;;;;;;;;;;2210079;59;1386;-53
2022/07/01 08:14:05;;;;;;;;;;;;;;;;;;2209893;67;1211;-54
2022/07/01 08:16:41;;;;;;;;;;;;;;;;;;2209597;67;1115;-54
2022/07/01 08:19:14;;;;;;;;;;;;;;;;;;2209171;67;1937;-53
2022/07/01 08:21:48;;;;;;;;;;;;;;;;;;2209505;67;1088;-53
2022/07/01 08:24:21;;;;;;;;;;;;;;;;;;2209868;67;1229;-54
2022/07/01 08:26:55;;;;;;;;;;;;;;;;;;2209548;59;1299;-53
2022/07/01 08:29:28;;;;;;;;;;;;;;;;;;2209314;67;1236;-52
2022/07/01 08:32:04;;;;;;;;;;;;;;;;;;2209253;59;1920;-52
2022/07/01 08:34:37;;;;;;;;;;;;;;;;;;2209358;67;1182;-53
2022/07/01 08:37:10;;;;;;;;;;;;;;;;;;2210032;67;1554;-53
2022/07/01 08:39:44;;;;;;;;;;;;;;;;;;2209031;67;1932;-53
2022/07/01 08:42:17;;;;;;;;;;;;;;;;;;2210726;59;2091;-53
2022/07/01 08:44:50;;;;;;;;;;;;;;;;;;2211445;67;1211;-53
2022/07/01 08:47:26;;;;;;;;;;;;;;;;;;2211819;67;1204;-53
2022/07/01 08:50:01;;;;;;;;;;;;;;;;;;2211256;67;1235;-53
2022/07/01 08:52:36;;;;;;;;;;;;;;;;;;2210247;67;1111;-54
2022/07/01 08:55:09;;;;;;;;;;;;;;;;;;2209911;59;1207;-53
2022/07/01 08:57:42;;;;;;;;;;;;;;;;;;2205837;67;1929;-55
2022/07/01 09:00:16;;;;;;;;;;;;;;;;;;2209591;67;1322;-53
2022/07/01 09:02:56;;;;;;;;;;;;;;;;;;2209332;67;1059;-53
2022/07/01 09:05:30;;;;;;;;;;;;;;;;;;2209920;59;1330;-53
2022/07/01 09:08:05;;;;;;;;;;;;;;;;;;2209574;67;1230;-56
2022/07/01 09:10:38;;;;;;;;;;;;;;;;;;2209867;59;1348;-53
2022/07/01 09:13:12;;;;;;;;;;;;;;;;;;2210214;67;1333;-53
2022/07/01 09:15:45;;;;;;;;;;;;;;;;;;2209341;67;1158;-55
2022/07/01 09:18:21;;;;;;;;;;;;;;;;;;2209404;67;2007;-53
2022/07/01 09:20:54;;;;;;;;;;;;;;;;;;2209319;67;1124;-55
2022/07/01 09:23:28;;;;;;;;;;;;;;;;;;2209682;67;1199;-58
2022/07/01 09:26:01;;;;;;;;;;;;;;;;;;2209555;67;1102;-53
2022/07/01 09:28:34;;;;;;;;;;;;;;;;;;2209628;67;1223;-54
2022/07/01 09:31:07;;;;;;;;;;;;;;;;;;2209412;59;1845;-54
2022/07/01 09:33:43;;;;;;;;;;;;;;;;;;2209087;67;1268;-54
2022/07/01 09:36:17;;;;;;;;;;;;;;;;;;2209713;67;1258;-57
2022/07/01 09:38:50;;;;;;;;;;;;;;;;;;2209546;67;1968;-54
2022/07/01 09:41:25;;;;;;;;;;;;;;;;;;2206098;59;1942;-54
2022/07/01 09:44:05;;;;;;;;;;;;;;;;;;2209568;67;1199;-55
2022/07/01 09:46:39;;;;;;;;;;;;;;;;;;2209186;67;1105;-56
2022/07/01 09:49:14;;;;;;;;;;;;;;;;;;2209568;67;1247;-60
2022/07/01 09:51:49;;;;;;;;;;;;;;;;;;2209583;67;1152;-56
2022/07/01 09:54:22;;;;;;;;;;;;;;;;;;2209527;59;1305;-54
2022/07/01 09:56:55;;;;;;;;;;;;;;;;;;2209956;67;1205;-55
2022/07/01 09:59:28;;;;;;;;;;;;;;;;;;2209325;67;1974;-53
2022/07/01 10:02:03;;;;;;;;;;;;;;;;;;2209067;67;1153;-62
2022/07/01 10:04:39;;;;;;;;;;;;;;;;;;2209339;59;1432;-53
2022/07/01 10:07:21;;;;;;;;;;;;;;;;;;2210088;67;1200;-53
2022/07/01 10:10:15;;;;;;;;;;;;;;;;;;2209349;67;1263;-53
2022/07/01 10:12:51;;;;;;;;;;;;;;;;;;2209502;59;1346;-52
2022/07/01 10:15:25;;;;;;;;;;;;;;;;;;2209512;67;1215;-53
2022/07/01 10:17:58;;;;;;;;;;;;;;;;;;2208457;59;1287;-54
2022/07/01 10:20:34;;;;;;;;;;;;;;;;;;2209172;67;1209;-55
2022/07/01 10:23:08;;;;;;;;;;;;;;;;;;2209070;67;1110;-53
2022/07/01 10:25:45;;;;;;;;;;;;;;;;;;2208550;59;1299;-53
2022/07/01 10:28:26;;;;;;;;;;;;;;;;;;2209009;67;1296;-53
2022/07/01 10:31:01;;;;;;;;;;;;;;;;;;2209068;67;2069;-53
2022/07/01 10:33:40;;;;;;;;;;;;;;;;;;2209066;67;1270;-53
2022/07/01 10:36:18;;;;;;;;;;;;;;;;;;2209210;59;1192;-53
2022/07/01 10:39:11;;;;;;;;;;;;;;;;;;2209076;67;1936;-54
2022/07/01 10:41:56;;;;;;;;;;;;;;;;;;2209614;59;2035;-57
2022/07/01 10:44:35;;;;;;;;;;;;;;;;;;2210342;59;1087;-55
2022/07/01 10:47:09;;;;;;;;;;;;;;;;;;2209112;67;1210;-55
2022/07/01 10:49:56;;;;;;;;;;;;;;;;;;2209126;67;1305;-55
2022/07/01 10:52:33;;;;;;;;;;;;;;;;;;2209938;67;1636;-55
2022/07/01 10:55:07;;;;;;;;;;;;;;;;;;2210001;59;1112;-53
2022/07/01 10:57:41;;;;;;;;;;;;;;;;;;2209182;67;1450;-54
2022/07/01 11:00:31;;;;;;;;;;;;;;;;;;2209135;67;1995;-53
2022/07/01 11:03:12;;;;;;;;;;;;;;;;;;2208721;67;1175;-57
2022/07/01 11:05:45;;;;;;;;;;;;;;;;;;2209464;59;1473;-54
2022/07/01 11:08:21;;;;;;;;;;;;;;;;;;2209669;59;1254;-54
2022/07/01 11:10:57;;;;;;;;;;;;;;;;;;2209274;67;1964;-53
2022/07/01 11:13:30;;;;;;;;;;;;;;;;;;2209375;67;1145;-53
2022/07/01 11:16:03;;;;;;;;;;;;;;;;;;2209426;67;1148;-55
2022/07/01 11:18:36;;;;;;;;;;;;;;;;;;2208985;67;1992;-53
2022/07/01 11:21:11;;;;;;;;;;;;;;;;;;2209595;67;1238;-53
2022/07/01 11:23:57;;;;;;;;;;;;;;;;;;2209605;67;1117;-53
2022/07/01 11:26:30;;;;;;;;;;;;;;;;;;2209564;59;1272;-53
2022/07/01 11:29:03;;;;;;;;;;;;;;;;;;2209770;67;1246;-56
2022/07/01 11:31:37;;;;;;;;;;;;;;;;;;2209383;59;2604;-55
2022/07/01 11:34:10;;;;;;;;;;;;;;;;;;2209879;67;1343;-53
2022/07/01 11:39:37;;;;;;;;;;;;;;;;;;2209573;67;1985;-54
2022/07/01 11:42:11;;;;;;;;;;;;;;;;;;2209372;59;2033;-53
2022/07/01 11:44:46;;;;;;;;;;;;;;;;;;2209408;67;1078;-55
2022/07/01 11:47:25;;;;;;;;;;;;;;;;;;2209614;67;1094;-53
2022/07/01 11:49:58;;;;;;;;;;;;;;;;;;2211939;53;2133;-72
2022/07/01 11:52:32;;;;;;;;;;;;;;;;;;2209739;67;1136;-72
2022/07/01 11:55:09;;;;;;;;;;;;;;;;;;2208621;67;1136;-72
2022/07/01 11:57:42;;;;;;;;;;;;;;;;;;2209327;67;1397;-72
2022/07/01 12:00:16;;;;;;;;;;;;;;;;;;2209949;67;1939;-72
2022/07/01 12:02:51;;;;;;;;;;;;;;;;;;2209812;59;2342;-72
2022/07/01 12:10:47;;;;;;;;;;;;;;;;;;2333720;53;1857;-66
2022/07/01 12:13:24;;;;;;;;;;;;;;;;;;2208413;67;1290;-65
2022/07/01 12:16:08;;;;;;;;;;;;;;;;;;2207389;67;1214;-67
2022/07/01 12:18:41;;;;;;;;;;;;;;;;;;2208278;59;1140;-66
2022/07/01 12:21:14;;;;;;;;;;;;;;;;;;2208759;59;1219;-66
2022/07/01 12:24:02;;;;;;;;;;;;;;;;;;2209057;67;1142;-66
2022/07/01 12:26:48;;;;;;;;;;;;;;;;;;2208888;59;1279;-66
2022/07/01 12:29:22;;;;;;;;;;;;;;;;;;2208811;67;1197;-65
2022/07/01 12:31:59;;;;;;;;;;;;;;;;;;2208761;59;2016;-63
2022/07/01 12:34:41;;;;;;;;;;;;;;;;;;2208681;59;1194;-65
2022/07/01 12:37:15;;;;;;;;;;;;;;;;;;2208624;67;1200;-67
2022/07/01 12:39:49;;;;;;;;;;;;;;;;;;2208595;67;1928;-67
2022/07/01 12:42:26;;;;;;;;;;;;;;;;;;2209536;59;1991;-66
2022/07/01 12:45:00;;;;;;;;;;;;;;;;;;2208701;67;1215;-66
2022/07/01 12:47:34;;;;;;;;;;;;;;;;;;2209050;67;1131;-66
2022/07/01 12:50:10;;;;;;;;;;;;;;;;;;2209110;67;1264;-66
2022/07/01 12:52:46;;;;;;;;;;;;;;;;;;2208953;67;1118;-64
2022/07/01 12:55:20;;;;;;;;;;;;;;;;;;2208967;67;1258;-66
2022/07/01 12:57:58;;;;;;;;;;;;;;;;;;2209053;67;1105;-66
2022/07/01 13:00:32;;;;;;;;;;;;;;;;;;2208374;67;1934;-66
2022/07/01 13:03:06;;;;;;;;;;;;;;;;;;2208501;67;1114;-65
2022/07/01 13:05:41;;;;;;;;;;;;;;;;;;2208934;59;1467;-67
2022/07/01 13:08:14;;;;;;;;;;;;;;;;;;2209124;59;1126;-65
2022/07/01 13:10:48;;;;;;;;;;;;;;;;;;2209196;59;1422;-66
2022/07/01 13:13:24;;;;;;;;;;;;;;;;;;2209416;59;1271;-65
2022/07/01 13:15:57;;;;;;;;;;;;;;;;;;2208771;59;1210;-65
2022/07/01 13:18:30;;;;;;;;;;;;;;;;;;2209138;67;1112;-66
2022/07/01 13:21:03;;;;;;;;;;;;;;;;;;2208621;67;1932;-66
2022/07/01 13:23:37;;;;;;;;;;;;;;;;;;2209131;67;1095;-62
2022/07/01 13:26:10;;;;;;;;;;;;;;;;;;2209520;59;1299;-65
2022/07/01 13:28:46;;;;;;;;;;;;;;;;;;2208811;60;1176;-65
2022/07/01 13:31:19;;;;;;;;;;;;;;;;;;2208534;59;1839;-62
2022/07/01 13:33:52;;;;;;;;;;;;;;;;;;2208264;59;1203;-65
2022/07/01 13:36:25;;;;;;;;;;;;;;;;;;2208825;59;1181;-66
2022/07/01 13:38:58;;;;;;;;;;;;;;;;;;2209005;67;1200;-66
2022/07/01 13:41:31;;;;;;;;;;;;;;;;;;2208633;59;2015;-66
2022/07/01 13:44:08;;;;;;;;;;;;;;;;;;2208985;67;1089;-67
2022/07/01 13:46:42;;;;;;;;;;;;;;;;;;2205775;67;1341;-64
2022/07/01 13:49:15;;;;;;;;;;;;;;;;;;2209595;67;1116;-66
2022/07/01 13:51:48;;;;;;;;;;;;;;;;;;2209060;67;1194;-65
2022/07/01 13:54:21;;;;;;;;;;;;;;;;;;2208664;67;1461;-66
2022/07/01 13:56:55;;;;;;;;;;;;;;;;;;2209075;67;1117;-65
2022/07/01 13:59:30;;;;;;;;;;;;;;;;;;2208630;67;1940;-66
2022/07/01 14:02:05;;;;;;;;;;;;;;;;;;2205374;67;2220;-66
2022/07/01 14:04:39;;;;;;;;;;;;;;;;;;2208778;59;1302;-67
2022/07/01 14:07:12;;;;;;;;;;;;;;;;;;2205122;67;1262;-64
2022/07/01 14:09:46;;;;;;;;;;;;;;;;;;2209244;67;1290;-66
2022/07/01 14:12:20;;;;;;;;;;;;;;;;;;2209404;59;1410;-66
2022/07/01 14:14:56;;;;;;;;;;;;;;;;;;2209089;67;1194;-66
2022/07/01 14:17:29;;;;;;;;;;;;;;;;;;2208631;67;1282;-65
2022/07/01 14:20:02;;;;;;;;;;;;;;;;;;2209181;67;1927;-66
2022/07/01 14:22:35;;;;;;;;;;;;;;;;;;2208931;67;1125;-66
2022/07/01 14:25:09;;;;;;;;;;;;;;;;;;2208608;67;1263;-64
2022/07/01 14:27:42;;;;;;;;;;;;;;;;;;2208728;59;1569;-65
2022/07/01 14:30:18;;;;;;;;;;;;;;;;;;2208574;59;1961;-66
2022/07/01 14:32:51;;;;;;;;;;;;;;;;;;2208452;67;1112;-65
2022/07/01 14:35:25;;;;;;;;;;;;;;;;;;2208712;67;1239;-65
2022/07/01 14:38:00;;;;;;;;;;;;;;;;;;2208349;67;1227;-66
2022/07/01 14:40:34;;;;;;;;;;;;;;;;;;2208116;59;2019;-64
2022/07/01 14:43:07;;;;;;;;;;;;;;;;;;2208731;67;1188;-64
2022/07/01 14:45:43;;;;;;;;;;;;;;;;;;2208507;67;1147;-65
2022/07/01 14:48:16;;;;;;;;;;;;;;;;;;2208951;67;1193;-65
2022/07/01 14:50:49;;;;;;;;;;;;;;;;;;2208656;67;1188;-65
2022/07/01 14:53:23;;;;;;;;;;;;;;;;;;2208771;67;1196;-64
2022/07/01 14:55:56;;;;;;;;;;;;;;;;;;2208734;67;1133;-64
2022/07/01 14:58:29;;;;;;;;;;;;;;;;;;2208984;67;1126;-66
2022/07/01 15:01:05;;;;;;;;;;;;;;;;;;2208452;67;1981;-65
2022/07/01 15:03:38;;;;;;;;;;;;;;;;;;2208215;67;1146;-65
2022/07/01 15:06:12;;;;;;;;;;;;;;;;;;2208945;67;1147;-65
2022/07/01 15:08:45;;;;;;;;;;;;;;;;;;2208477;59;1068;-66
2022/07/01 15:11:18;;;;;;;;;;;;;;;;;;2209362;59;1307;-65
2022/07/01 15:13:51;;;;;;;;;;;;;;;;;;2208766;67;1200;-65
2022/07/01 15:16:27;;;;;;;;;;;;;;;;;;2209008;67;1203;-66
2022/07/01 15:19:01;;;;;;;;;;;;;;;;;;2209101;67;1225;-66
2022/07/01 15:21:34;;;;;;;;;;;;;;;;;;2208733;67;1924;-65
2022/07/01 15:24:07;;;;;;;;;;;;;;;;;;2208585;67;1243;-64
2022/07/01 15:26:43;;;;;;;;;;;;;;;;;;2208596;59;1268;-64
2022/07/01 15:29:16;;;;;;;;;;;;;;;;;;2209022;67;1278;-64
2022/07/01 15:31:52;;;;;;;;;;;;;;;;;;2208697;59;1944;-66
2022/07/01 15:34:25;;;;;;;;;;;;;;;;;;2208756;67;1203;-64
2022/07/01 15:36:59;;;;;;;;;;;;;;;;;;2208600;67;1276;-65
2022/07/01 15:39:33;;;;;;;;;;;;;;;;;;2208333;67;1239;-65
2022/07/01 15:42:07;;;;;;;;;;;;;;;;;;2208152;59;2012;-64
2022/07/01 15:44:40;;;;;;;;;;;;;;;;;;2208652;67;1229;-66
2022/07/01 15:50:06;;;;;;;;;;;;;;;;;;2208775;67;1246;-63
2022/07/01 15:52:45;;;;;;;;;;;;;;;;;;2208927;67;1251;-66
2022/07/01 15:55:18;;;;;;;;;;;;;;;;;;2209665;67;1135;-65
2022/07/01 15:57:52;;;;;;;;;;;;;;;;;;2209195;67;1094;-63
2022/07/01 16:00:26;;;;;;;;;;;;;;;;;;2208984;67;1937;-65
2022/07/01 16:03:02;;;;;;;;;;;;;;;;;;2209358;67;1286;-64
2022/07/01 16:05:36;;;;;;;;;;;;;;;;;;2208859;59;1263;-64
2022/07/01 16:08:10;;;;;;;;;;;;;;;;;;2209112;67;1205;-66
2022/07/01 16:10:45;;;;;;;;;;;;;;;;;;2209000;59;1279;-65
2022/07/01 16:13:19;;;;;;;;;;;;;;;;;;2209719;59;1259;-65
2022/07/01 16:15:54;;;;;;;;;;;;;;;;;;2208612;67;1193;-64
2022/07/01 16:18:31;;;;;;;;;;;;;;;;;;2208989;67;1163;-65
2022/07/01 16:21:05;;;;;;;;;;;;;;;;;;2209329;67;1940;-65
2022/07/01 16:23:38;;;;;;;;;;;;;;;;;;2205487;67;1301;-64
2022/07/01 16:26:13;;;;;;;;;;;;;;;;;;2209632;59;1287;-64
2022/07/01 16:28:46;;;;;;;;;;;;;;;;;;2209975;67;1136;-64
2022/07/01 16:31:20;;;;;;;;;;;;;;;;;;2209924;59;1943;-63
2022/07/01 16:33:56;;;;;;;;;;;;;;;;;;2210020;67;1301;-64
2022/07/01 16:36:31;;;;;;;;;;;;;;;;;;2208790;59;1395;-64
2022/07/01 16:39:14;;;;;;;;;;;;;;;;;;2208759;59;1824;-65
2022/07/01 16:41:50;;;;;;;;;;;;;;;;;;2208764;59;1986;-66
2022/07/01 16:44:28;;;;;;;;;;;;;;;;;;2209266;59;1681;-66
2022/07/01 16:47:03;;;;;;;;;;;;;;;;;;2209490;67;1232;-62
2022/07/01 16:49:43;;;;;;;;;;;;;;;;;;2208746;67;1129;-66
2022/07/01 16:52:17;;;;;;;;;;;;;;;;;;2209520;67;1187;-64
2022/07/01 16:54:52;;;;;;;;;;;;;;;;;;2209236;67;1141;-65
2022/07/01 16:57:27;;;;;;;;;;;;;;;;;;2209039;67;1191;-64
2022/07/01 17:00:00;;;;;;;;;;;;;;;;;;2208896;67;1232;-65
2022/07/01 17:02:35;;;;;;;;;;;;;;;;;;2208360;59;1928;-64
2022/07/01 17:05:12;;;;;;;;;;;;;;;;;;2208793;59;1350;-65
2022/07/01 17:07:46;;;;;;;;;;;;;;;;;;2208924;67;1069;-64
2022/07/01 17:10:19;;;;;;;;;;;;;;;;;;2208825;59;1231;-66
2022/07/01 17:12:53;;;;;;;;;;;;;;;;;;2209525;59;1715;-62
2022/07/01 17:15:26;;;;;;;;;;;;;;;;;;2208814;67;1159;-65
2022/07/01 17:17:59;;;;;;;;;;;;;;;;;;2209051;67;1128;-66
2022/07/01 17:20:37;;;;;;;;;;;;;;;;;;2208609;67;1258;-64
2022/07/01 17:23:16;;;;;;;;;;;;;;;;;;2209431;67;1274;-64
2022/07/01 17:25:51;;;;;;;;;;;;;;;;;;2208912;67;1218;-67
2022/07/01 17:28:35;;;;;;;;;;;;;;;;;;2209363;59;1124;-64
2022/07/01 17:31:26;;;;;;;;;;;;;;;;;;2208416;59;1902;-66
2022/07/01 17:34:00;;;;;;;;;;;;;;;;;;2208901;67;1259;-64
2022/07/01 17:36:36;;;;;;;;;;;;;;;;;;2205086;67;1475;-64
2022/07/01 17:39:12;;;;;;;;;;;;;;;;;;2208231;67;1191;-65
2022/07/01 17:41:46;;;;;;;;;;;;;;;;;;2208866;59;1991;-65
2022/07/01 17:44:22;;;;;;;;;;;;;;;;;;2208918;67;1179;-66
2022/07/01 17:46:57;;;;;;;;;;;;;;;;;;2207953;67;1195;-65
2022/07/01 17:49:32;;;;;;;;;;;;;;;;;;2207661;67;1262;-63
2022/07/01 17:52:10;;;;;;;;;;;;;;;;;;2208291;67;1180;-65
2022/07/01 17:54:45;;;;;;;;;;;;;;;;;;2208697;67;1239;-64
2022/07/01 17:57:18;;;;;;;;;;;;;;;;;;2208579;67;1195;-64
2022/07/01 17:59:53;;;;;;;;;;;;;;;;;;2208123;67;1646;-66
2022/07/01 18:02:27;;;;;;;;;;;;;;;;;;2208384;59;1933;-64
2022/07/01 18:05:02;;;;;;;;;;;;;;;;;;2208888;59;1328;-63
2022/07/01 18:07:38;;;;;;;;;;;;;;;;;;2207899;67;1240;-64